createdAt,value
2023-03-06T00:00:22.920Z,100.00
2023-03-06T00:02:52.180Z,100.00
2023-03-06T00:05:20.380Z,100.00
2023-03-06T00:07:48.456Z,100.00
2023-03-06T00:10:19.748Z,100.00
2023-03-06T00:12:47.470Z,100.00
2023-03-06T00:15:15.633Z,100.00
2023-03-06T00:17:43.388Z,100.00
2023-03-06T00:20:12.686Z,100.00
2023-03-06T00:22:40.984Z,100.00
2023-03-06T00:25:13.188Z,100.00
2023-03-06T00:27:42.855Z,100.00
2023-03-06T00:30:13.997Z,100.00
2023-03-06T00:32:43.641Z,100.00
2023-03-06T00:35:11.954Z,100.00
2023-03-06T00:37:40.360Z,100.00
2023-03-06T00:40:09.924Z,100.00
2023-03-06T00:42:37.721Z,100.00
2023-03-06T00:45:08.136Z,100.00
2023-03-06T00:47:35.872Z,100.00
2023-03-06T00:50:03.741Z,100.00
2023-03-06T00:52:31.710Z,100.00
2023-03-06T00:54:59.490Z,100.00
2023-03-06T00:57:27.223Z,100.00
2023-03-06T00:59:55.014Z,100.00
2023-03-06T01:02:26.772Z,100.00
2023-03-06T01:04:55.537Z,100.00
2023-03-06T01:07:23.394Z,100.00
2023-03-06T01:09:51.760Z,100.00
2023-03-06T01:12:20.911Z,100.00
2023-03-06T01:14:52.628Z,100.00
2023-03-06T01:17:20.438Z,100.00
2023-03-06T01:19:49.515Z,100.00
2023-03-06T01:22:17.222Z,100.00
2023-03-06T01:24:44.957Z,100.00
2023-03-06T01:27:12.714Z,100.00
2023-03-06T01:29:40.409Z,100.00
2023-03-06T01:32:08.792Z,100.00
2023-03-06T01:34:36.481Z,100.00
2023-03-06T01:37:05.591Z,100.00
2023-03-06T01:39:33.322Z,100.00
2023-03-06T01:42:01.037Z,100.00
2023-03-06T01:44:30.036Z,100.00
2023-03-06T01:46:57.762Z,100.00
2023-03-06T01:49:32.316Z,100.00
2023-03-06T01:52:09.951Z,100.00
2023-03-06T01:54:42.964Z,100.00
2023-03-06T01:57:14.036Z,100.00
2023-03-06T01:59:43.953Z,100.00
2023-03-06T02:02:13.666Z,100.00
2023-03-06T02:04:44.116Z,100.00
2023-03-06T02:07:12.423Z,100.00
2023-03-06T02:09:41.552Z,100.00
2023-03-06T02:12:12.489Z,100.00
2023-03-06T02:14:41.077Z,100.00
2023-03-06T02:17:11.568Z,100.00
2023-03-06T02:19:51.209Z,100.00
2023-03-06T02:22:20.759Z,100.00
2023-03-06T02:24:56.014Z,100.00
2023-03-06T02:27:26.925Z,100.00
2023-03-06T02:29:56.536Z,100.00
2023-03-06T02:32:24.318Z,100.00
2023-03-06T02:34:58.845Z,100.00
2023-03-06T02:37:33.916Z,100.00
2023-03-06T02:40:10.265Z,100.00
2023-03-06T02:42:39.382Z,100.00
2023-03-06T02:45:11.766Z,100.00
2023-03-06T02:47:40.592Z,100.00
2023-03-06T02:50:09.495Z,100.00
2023-03-06T02:52:37.184Z,100.00
2023-03-06T02:55:05.843Z,100.00
2023-03-06T02:57:33.612Z,100.00
2023-03-06T03:00:03.133Z,100.00
2023-03-06T03:02:30.870Z,100.00
2023-03-06T03:04:59.384Z,100.00
2023-03-06T03:07:27.554Z,100.00
2023-03-06T03:09:55.961Z,100.00
2023-03-06T03:12:24.342Z,100.00
2023-03-06T03:14:53.073Z,100.00
2023-03-06T03:17:22.243Z,100.00
2023-03-06T03:19:50.281Z,100.00
2023-03-06T03:22:19.201Z,100.00
2023-03-06T03:24:47.105Z,100.00
2023-03-06T03:27:15.477Z,100.00
2023-03-06T03:29:46.389Z,100.00
2023-03-06T03:32:14.310Z,100.00
2023-03-06T03:34:44.663Z,100.00
2023-03-06T03:37:13.508Z,100.00
2023-03-06T03:39:43.125Z,100.00
2023-03-06T03:42:11.522Z,100.00
2023-03-06T03:44:39.645Z,100.00
2023-03-06T03:47:08.071Z,100.00
2023-03-06T03:49:38.838Z,100.00
2023-03-06T03:52:08.208Z,100.00
2023-03-06T03:54:37.244Z,100.00
2023-03-06T03:57:05.248Z,100.00
2023-03-06T03:59:36.425Z,100.00
2023-03-06T04:02:16.977Z,100.00
2023-03-06T04:04:56.708Z,100.00
2023-03-06T04:07:25.850Z,100.00
2023-03-06T04:09:54.820Z,100.00
2023-03-06T04:12:22.769Z,100.00
2023-03-06T04:14:50.568Z,100.00
2023-03-06T04:17:18.729Z,100.00
2023-03-06T04:19:46.603Z,100.00
2023-03-06T04:22:15.042Z,100.00
2023-03-06T04:24:45.570Z,100.00
2023-03-06T04:27:13.329Z,100.00
2023-03-06T04:29:41.091Z,100.00
2023-03-06T04:32:09.185Z,100.00
2023-03-06T04:34:37.202Z,100.00
2023-03-06T04:37:05.282Z,100.00
2023-03-06T04:39:33.097Z,100.00
2023-03-06T04:42:02.241Z,100.00
2023-03-06T04:44:29.960Z,100.00
2023-03-06T04:46:57.638Z,100.00
2023-03-06T04:49:25.353Z,100.00
2023-03-06T04:51:53.049Z,100.00
2023-03-06T04:54:20.814Z,100.00
2023-03-06T04:56:48.553Z,100.00
2023-03-06T04:59:20.050Z,100.00
2023-03-06T05:01:47.834Z,100.00
2023-03-06T05:04:15.634Z,100.00
2023-03-06T05:06:43.320Z,100.00
2023-03-06T05:09:12.680Z,100.00
2023-03-06T05:11:40.346Z,100.00
2023-03-06T05:14:08.040Z,100.00
2023-03-06T05:16:37.230Z,100.00
2023-03-06T05:19:05.033Z,100.00
2023-03-06T05:21:32.756Z,100.00
2023-03-06T05:24:00.479Z,100.00
2023-03-06T05:26:28.217Z,100.00
2023-03-06T05:28:56.246Z,100.00
2023-03-06T05:31:25.537Z,100.00
2023-03-06T05:33:54.652Z,100.00
2023-03-06T05:36:23.565Z,100.00
2023-03-06T05:38:51.384Z,100.00
2023-03-06T05:41:19.133Z,100.00
2023-03-06T05:43:46.824Z,100.00
2023-03-06T05:46:14.812Z,100.00
2023-03-06T05:48:42.557Z,100.00
2023-03-06T05:51:12.110Z,100.00
2023-03-06T05:53:39.802Z,100.00
2023-03-06T05:56:09.811Z,100.00
2023-03-06T05:58:38.241Z,100.00
2023-03-06T06:01:10.344Z,100.00
2023-03-06T06:03:38.510Z,100.00
2023-03-06T06:06:07.240Z,100.00
2023-03-06T06:08:36.682Z,100.00
2023-03-06T06:11:05.849Z,100.00
2023-03-06T06:13:33.754Z,100.00
2023-03-06T06:16:01.596Z,100.00
2023-03-06T06:18:29.383Z,100.00
2023-03-06T06:20:57.065Z,100.00
2023-03-06T06:23:24.727Z,100.00
2023-03-06T06:25:53.748Z,100.00
2023-03-06T06:28:21.414Z,100.00
2023-03-06T06:30:51.262Z,100.00
2023-03-06T06:33:18.974Z,100.00
2023-03-06T06:35:49.244Z,100.00
2023-03-06T06:38:17.442Z,100.00
2023-03-06T06:40:53.986Z,100.00
2023-03-06T06:43:34.009Z,100.00
2023-03-06T06:46:23.066Z,100.00
2023-03-06T06:48:52.465Z,100.00
2023-03-06T06:51:20.283Z,100.00
2023-03-06T06:53:48.048Z,100.00
2023-03-06T06:56:15.732Z,100.00
2023-03-06T06:58:44.868Z,100.00
2023-03-06T07:01:14.220Z,100.00
2023-03-06T07:03:42.191Z,100.00
2023-03-06T07:06:11.323Z,100.00
2023-03-06T07:08:41.283Z,100.00
2023-03-06T07:11:12.079Z,100.00
2023-03-06T07:13:39.813Z,100.00
2023-03-06T07:16:09.373Z,100.00
2023-03-06T07:18:37.450Z,100.00
2023-03-06T07:21:05.754Z,100.00
2023-03-06T07:23:33.527Z,100.00
2023-03-06T07:26:01.397Z,100.00
2023-03-06T07:28:29.201Z,100.00
2023-03-06T07:30:57.072Z,100.00
2023-03-06T07:33:26.418Z,100.00
2023-03-06T07:35:57.313Z,100.00
2023-03-06T07:38:25.058Z,100.00
2023-03-06T07:40:53.784Z,100.00
2023-03-06T07:43:21.505Z,100.00
2023-03-06T07:46:05.606Z,100.00
2023-03-06T07:48:43.127Z,100.00
2023-03-06T07:51:16.226Z,100.00
2023-03-06T07:53:44.741Z,100.00
2023-03-06T07:56:13.028Z,100.00
2023-03-06T07:58:42.421Z,100.00
2023-03-06T08:01:14.280Z,100.00
2023-03-06T08:03:43.974Z,100.00
2023-03-06T08:06:14.178Z,100.00
2023-03-06T08:08:44.391Z,100.00
2023-03-06T08:11:13.935Z,100.00
2023-03-06T08:13:41.984Z,100.00
2023-03-06T08:16:10.240Z,100.00
2023-03-06T08:18:39.596Z,100.00
2023-03-06T08:21:10.465Z,100.00
2023-03-06T08:23:38.784Z,100.00
2023-03-06T08:26:10.050Z,100.00
2023-03-06T08:28:37.758Z,100.00
2023-03-06T08:31:09.953Z,100.00
2023-03-06T08:33:38.412Z,100.00
2023-03-06T08:36:08.323Z,100.00
2023-03-06T08:38:36.026Z,100.00
2023-03-06T08:41:04.111Z,100.00
2023-03-06T08:43:31.845Z,100.00
2023-03-06T08:46:00.223Z,100.00
2023-03-06T08:48:28.124Z,100.00
2023-03-06T08:50:55.963Z,100.00
2023-03-06T08:53:41.794Z,100.00
2023-03-06T08:56:16.766Z,100.00
2023-03-06T08:58:44.615Z,100.00
2023-03-06T09:01:15.025Z,100.00
2023-03-06T09:03:42.810Z,100.00
2023-03-06T09:06:10.604Z,100.00
2023-03-06T09:08:42.927Z,100.00
2023-03-06T09:11:11.358Z,100.00
2023-03-06T09:13:39.128Z,100.00
2023-03-06T09:16:07.757Z,100.00
2023-03-06T09:18:35.654Z,100.00
2023-03-06T09:21:03.997Z,100.00
2023-03-06T09:23:32.070Z,100.00
2023-03-06T09:26:02.511Z,100.00
2023-03-06T09:28:30.374Z,100.00
2023-03-06T09:30:58.402Z,100.00
2023-03-06T09:33:26.252Z,100.00
2023-03-06T09:35:56.138Z,100.00
2023-03-06T09:38:26.548Z,100.00
2023-03-06T09:41:04.189Z,100.00
2023-03-06T09:43:35.423Z,100.00
2023-03-06T09:46:08.469Z,100.00
2023-03-06T09:48:46.453Z,100.00
2023-03-06T09:51:17.348Z,100.00
2023-03-06T09:53:57.825Z,100.00
2023-03-06T09:56:31.015Z,100.00
2023-03-06T09:59:06.010Z,100.00
2023-03-06T10:01:38.325Z,100.00
2023-03-06T10:04:12.561Z,100.00
2023-03-06T10:06:48.470Z,100.00
2023-03-06T10:09:21.123Z,100.00
2023-03-06T10:11:57.435Z,100.00
2023-03-06T10:14:32.717Z,100.00
2023-03-06T10:17:01.619Z,100.00
2023-03-06T10:19:34.649Z,100.00
2023-03-06T10:22:07.693Z,100.00
2023-03-06T10:24:52.132Z,100.00
2023-03-06T10:27:36.960Z,100.00
2023-03-06T10:30:27.759Z,100.00
2023-03-06T10:33:02.114Z,100.00
2023-03-06T10:35:33.267Z,100.00
2023-03-06T10:38:06.256Z,100.00
2023-03-06T10:40:46.206Z,100.00
2023-03-06T10:43:15.378Z,100.00
2023-03-06T10:45:49.689Z,100.00
2023-03-06T10:48:24.000Z,100.00
2023-03-06T10:50:53.286Z,100.00
2023-03-06T10:53:23.809Z,100.00
2023-03-06T10:55:53.883Z,100.00
2023-03-06T10:58:26.551Z,100.00
2023-03-06T11:01:19.380Z,100.00
2023-03-06T11:03:47.693Z,100.00
2023-03-06T11:06:31.410Z,100.00
2023-03-06T11:09:16.461Z,100.00
2023-03-06T11:11:44.190Z,100.00
2023-03-06T11:14:19.453Z,100.00
2023-03-06T11:16:52.984Z,100.00
2023-03-06T11:19:24.539Z,100.00
2023-03-06T11:22:03.749Z,100.00
2023-03-06T11:24:39.939Z,100.00
2023-03-06T11:27:22.159Z,100.00
2023-03-06T11:29:52.627Z,100.00
2023-03-06T11:32:22.477Z,100.00
2023-03-06T11:34:53.205Z,100.00
2023-03-06T11:37:30.988Z,100.00
2023-03-06T11:40:07.293Z,99.84
2023-03-06T11:42:40.126Z,100.00
2023-03-06T11:45:25.775Z,100.00
2023-03-06T11:48:01.647Z,99.33
2023-03-06T11:50:34.922Z,97.19
2023-03-06T11:53:04.657Z,97.10
2023-03-06T11:55:49.344Z,94.68
2023-03-06T11:58:51.821Z,95.36
2023-03-06T12:01:28.300Z,95.45
2023-03-06T12:04:08.328Z,94.03
2023-03-06T12:06:48.259Z,93.40
2023-03-06T12:09:35.188Z,91.95
2023-03-06T12:12:23.947Z,90.10
2023-03-06T12:15:07.755Z,89.22
2023-03-06T12:17:54.572Z,87.95
2023-03-06T12:20:37.669Z,86.44
2023-03-06T12:23:19.330Z,82.92
2023-03-06T12:25:54.058Z,82.96
2023-03-06T12:28:51.303Z,81.57
2023-03-06T12:31:27.810Z,77.30
2023-03-06T12:34:11.966Z,78.42
2023-03-06T12:36:54.601Z,77.76
2023-03-06T12:39:33.188Z,71.80
2023-03-06T12:42:23.081Z,70.34
2023-03-06T12:45:18.516Z,71.08
2023-03-06T12:47:48.418Z,71.55
2023-03-06T12:50:25.226Z,71.19
2023-03-06T12:52:54.893Z,70.01
2023-03-06T12:55:25.879Z,70.34
2023-03-06T12:57:53.960Z,71.17
2023-03-06T13:01:04.522Z,72.83
2023-03-06T13:03:48.541Z,71.86
2023-03-06T13:06:49.811Z,74.58
2023-03-06T13:09:29.097Z,75.25
2023-03-06T13:12:19.522Z,76.88
2023-03-06T13:14:56.170Z,75.86
2023-03-06T13:17:38.118Z,74.58
2023-03-06T13:20:31.561Z,75.07
2023-03-06T13:23:43.323Z,72.80
2023-03-06T13:26:32.695Z,69.69
2023-03-06T13:29:00.492Z,71.33
2023-03-06T13:31:30.106Z,72.06
2023-03-06T13:34:00.037Z,73.65
2023-03-06T13:36:32.598Z,74.43
2023-03-06T13:39:09.767Z,75.43
2023-03-06T13:41:58.898Z,74.16
2023-03-06T13:44:49.595Z,75.99
2023-03-06T13:48:09.740Z,73.84
2023-03-06T13:50:38.236Z,70.33
2023-03-06T13:53:49.402Z,67.41
2023-03-06T13:56:34.248Z,63.87
2023-03-06T13:59:20.150Z,62.89
2023-03-06T14:02:00.146Z,64.22
2023-03-06T14:04:54.346Z,65.53
2023-03-06T14:07:27.358Z,66.66
2023-03-06T14:10:10.641Z,68.56
2023-03-06T14:12:43.215Z,65.47
2023-03-06T14:15:20.363Z,65.07
2023-03-06T14:17:58.124Z,63.61
2023-03-06T14:20:34.132Z,63.82
2023-03-06T14:23:27.260Z,64.20
2023-03-06T14:26:03.427Z,64.79
2023-03-06T14:28:34.272Z,61.35
2023-03-06T14:31:04.482Z,64.12
2023-03-06T14:33:35.681Z,64.82
2023-03-06T14:36:09.555Z,69.73
2023-03-06T14:38:43.766Z,72.10
2023-03-06T14:41:13.164Z,78.27
2023-03-06T14:43:43.280Z,79.99
2023-03-06T14:46:20.588Z,84.06
2023-03-06T14:48:49.201Z,87.36
2023-03-06T14:51:19.366Z,89.77
2023-03-06T14:53:49.828Z,89.42
2023-03-06T14:56:20.212Z,92.33
2023-03-06T14:59:00.363Z,92.05
2023-03-06T15:01:32.439Z,92.33
2023-03-06T15:04:01.973Z,90.19
2023-03-06T15:06:34.617Z,89.01
2023-03-06T15:09:07.711Z,86.98
2023-03-06T15:11:56.776Z,88.57
2023-03-06T15:14:32.874Z,88.77
2023-03-06T15:17:22.603Z,87.72
2023-03-06T15:19:51.864Z,87.13
2023-03-06T15:22:28.191Z,87.97
2023-03-06T15:25:15.701Z,89.38
2023-03-06T15:27:49.658Z,90.02
2023-03-06T15:30:29.130Z,88.06
2023-03-06T15:33:10.647Z,86.97
2023-03-06T15:35:39.512Z,85.82
2023-03-06T15:38:24.773Z,84.24
2023-03-06T15:40:57.833Z,84.06
2023-03-06T15:43:26.042Z,81.83
2023-03-06T15:46:00.097Z,82.42
2023-03-06T15:48:28.737Z,83.05
2023-03-06T15:50:56.516Z,83.24
2023-03-06T15:53:24.302Z,82.83
2023-03-06T15:55:53.021Z,84.41
2023-03-06T15:58:26.604Z,85.12
2023-03-06T16:00:55.729Z,81.46
2023-03-06T16:03:23.477Z,82.04
2023-03-06T16:05:51.622Z,83.02
2023-03-06T16:08:22.102Z,84.79
2023-03-06T16:10:51.421Z,84.18
2023-03-06T16:13:26.600Z,83.98
2023-03-06T16:15:56.314Z,85.23
2023-03-06T16:18:24.084Z,85.34
2023-03-06T16:20:51.812Z,85.24
2023-03-06T16:23:19.494Z,84.72
2023-03-06T16:25:49.919Z,84.34
2023-03-06T16:28:18.440Z,85.04
2023-03-06T16:31:18.600Z,85.34
2023-03-06T16:33:46.640Z,85.31
2023-03-06T16:36:17.519Z,85.58
2023-03-06T16:38:45.305Z,87.55
2023-03-06T16:41:13.058Z,88.64
2023-03-06T16:43:40.963Z,89.92
2023-03-06T16:46:15.997Z,91.06
2023-03-06T16:48:45.473Z,92.59
2023-03-06T16:51:16.421Z,93.75
2023-03-06T16:53:44.594Z,94.27
2023-03-06T16:56:13.678Z,95.00
2023-03-06T16:58:41.945Z,95.54
2023-03-06T17:01:10.693Z,97.42
2023-03-06T17:03:40.021Z,97.57
2023-03-06T17:06:16.046Z,99.11
2023-03-06T17:08:44.254Z,99.82
2023-03-06T17:11:12.385Z,100.00
2023-03-06T17:13:40.472Z,100.00
2023-03-06T17:16:09.643Z,100.00
2023-03-06T17:18:37.437Z,100.00
2023-03-06T17:21:05.559Z,100.00
2023-03-06T17:23:34.653Z,100.00
2023-03-06T17:26:07.555Z,100.00
2023-03-06T17:28:35.808Z,100.00
2023-03-06T17:31:11.454Z,100.00
2023-03-06T17:33:39.233Z,100.00
2023-03-06T17:36:07.857Z,100.00
2023-03-06T17:38:37.221Z,100.00
2023-03-06T17:41:06.800Z,100.00
2023-03-06T17:43:34.744Z,100.00
2023-03-06T17:46:06.989Z,100.00
2023-03-06T17:48:35.110Z,100.00
2023-03-06T17:51:04.001Z,100.00
2023-03-06T17:53:32.077Z,100.00
2023-03-06T17:56:03.284Z,100.00
2023-03-06T17:58:31.097Z,100.00
2023-03-06T18:00:59.253Z,100.00
2023-03-06T18:03:27.829Z,100.00
2023-03-06T18:06:03.416Z,100.00
2023-03-06T18:08:32.019Z,100.00
2023-03-06T18:11:03.576Z,100.00
2023-03-06T18:13:31.743Z,100.00
2023-03-06T18:15:59.772Z,100.00
2023-03-06T18:18:28.676Z,100.00
2023-03-06T18:20:56.463Z,100.00
2023-03-06T18:23:24.751Z,100.00
2023-03-06T18:25:52.627Z,100.00
2023-03-06T18:28:21.925Z,100.00
2023-03-06T18:30:49.642Z,100.00
2023-03-06T18:33:17.421Z,100.00
2023-03-06T18:35:45.276Z,100.00
2023-03-06T18:38:13.007Z,100.00
2023-03-06T18:40:42.564Z,100.00
2023-03-06T18:43:10.260Z,100.00
2023-03-06T18:45:39.350Z,100.00
2023-03-06T18:48:07.415Z,100.00
2023-03-06T18:50:35.927Z,100.00
2023-03-06T18:53:03.746Z,100.00
2023-03-06T18:55:31.466Z,100.00
2023-03-06T18:57:59.197Z,100.00
2023-03-06T19:00:27.274Z,100.00
2023-03-06T19:02:56.503Z,100.00
2023-03-06T19:05:24.225Z,100.00
2023-03-06T19:07:52.273Z,100.00
2023-03-06T19:10:20.008Z,100.00
2023-03-06T19:12:47.805Z,100.00
2023-03-06T19:15:15.603Z,100.00
2023-03-06T19:17:43.321Z,100.00
2023-03-06T19:20:13.730Z,100.00
2023-03-06T19:22:41.446Z,100.00
2023-03-06T19:25:10.089Z,100.00
2023-03-06T19:27:39.060Z,100.00
2023-03-06T19:30:07.912Z,100.00
2023-03-06T19:32:35.703Z,100.00
2023-03-06T19:35:03.612Z,100.00
2023-03-06T19:37:33.034Z,100.00
2023-03-06T19:40:02.544Z,100.00
2023-03-06T19:42:31.026Z,100.00
2023-03-06T19:44:58.813Z,100.00
2023-03-06T19:47:26.495Z,100.00
2023-03-06T19:49:54.190Z,100.00
2023-03-06T19:52:23.803Z,100.00
2023-03-06T19:54:53.257Z,100.00
2023-03-06T19:57:21.600Z,100.00
2023-03-06T19:59:51.204Z,100.00
2023-03-06T20:02:26.255Z,100.00
2023-03-06T20:04:54.289Z,100.00
2023-03-06T20:07:22.196Z,100.00
2023-03-06T20:09:50.100Z,100.00
2023-03-06T20:12:19.182Z,100.00
2023-03-06T20:14:47.017Z,100.00
2023-03-06T20:17:14.718Z,100.00
2023-03-06T20:19:42.719Z,100.00
2023-03-06T20:22:10.383Z,100.00
2023-03-06T20:24:39.093Z,100.00
2023-03-06T20:27:06.867Z,100.00
2023-03-06T20:29:35.957Z,100.00
2023-03-06T20:32:03.792Z,100.00
2023-03-06T20:34:31.849Z,100.00
2023-03-06T20:36:59.566Z,100.00
2023-03-06T20:39:27.280Z,100.00
2023-03-06T20:41:55.097Z,100.00
2023-03-06T20:44:23.051Z,100.00
2023-03-06T20:46:52.847Z,100.00
2023-03-06T20:49:21.059Z,100.00
2023-03-06T20:51:49.886Z,100.00
2023-03-06T20:54:17.937Z,100.00
2023-03-06T20:56:48.907Z,100.00
2023-03-06T20:59:17.261Z,100.00
2023-03-06T21:01:47.854Z,100.00
2023-03-06T21:04:17.286Z,100.00
2023-03-06T21:06:46.759Z,100.00
2023-03-06T21:09:16.265Z,100.00
2023-03-06T21:11:44.152Z,100.00
2023-03-06T21:14:14.859Z,100.00
2023-03-06T21:16:43.077Z,100.00
2023-03-06T21:19:10.911Z,100.00
2023-03-06T21:21:40.013Z,100.00
2023-03-06T21:24:07.977Z,100.00
2023-03-06T21:26:35.796Z,100.00
2023-03-06T21:29:03.987Z,100.00
2023-03-06T21:31:33.303Z,100.00
2023-03-06T21:34:03.548Z,100.00
2023-03-06T21:36:32.242Z,100.00
2023-03-06T21:39:01.293Z,100.00
2023-03-06T21:41:30.359Z,100.00
2023-03-06T21:43:59.543Z,100.00
2023-03-06T21:46:28.357Z,100.00
2023-03-06T21:48:56.693Z,100.00
2023-03-06T21:51:26.598Z,100.00
2023-03-06T21:53:55.798Z,100.00
2023-03-06T21:56:28.209Z,100.00
2023-03-06T21:58:56.353Z,100.00
2023-03-06T22:01:26.832Z,100.00
2023-03-06T22:03:55.175Z,100.00
2023-03-06T22:06:25.345Z,100.00
2023-03-06T22:08:54.963Z,100.00
2023-03-06T22:11:25.832Z,100.00
2023-03-06T22:13:54.053Z,100.00
2023-03-06T22:16:21.918Z,100.00
2023-03-06T22:18:51.699Z,100.00
2023-03-06T22:21:21.246Z,100.00
2023-03-06T22:23:50.589Z,100.00
2023-03-06T22:26:18.603Z,100.00
2023-03-06T22:28:47.751Z,100.00
2023-03-06T22:31:17.450Z,100.00
2023-03-06T22:33:45.699Z,100.00
2023-03-06T22:36:15.322Z,100.00
2023-03-06T22:38:44.946Z,100.00
2023-03-06T22:41:14.066Z,100.00
2023-03-06T22:43:42.268Z,100.00
2023-03-06T22:46:13.223Z,100.00
2023-03-06T22:48:41.870Z,100.00
2023-03-06T22:51:12.778Z,100.00
2023-03-06T22:53:40.913Z,100.00
2023-03-06T22:56:11.895Z,100.00
2023-03-06T22:58:40.290Z,100.00
2023-03-06T23:01:09.687Z,100.00
2023-03-06T23:03:42.112Z,100.00
2023-03-06T23:06:12.135Z,100.00
2023-03-06T23:08:40.250Z,100.00
2023-03-06T23:11:09.974Z,100.00
2023-03-06T23:13:56.920Z,100.00
2023-03-06T23:16:43.207Z,100.00
2023-03-06T23:19:30.674Z,100.00
2023-03-06T23:22:17.018Z,100.00
2023-03-06T23:25:03.011Z,100.00
2023-03-06T23:27:30.674Z,100.00
2023-03-06T23:29:58.987Z,100.00
2023-03-06T23:32:26.984Z,100.00
2023-03-06T23:34:56.083Z,100.00
2023-03-06T23:37:23.766Z,100.00
2023-03-06T23:39:52.026Z,100.00
2023-03-06T23:42:20.123Z,100.00
2023-03-06T23:44:47.874Z,100.00
2023-03-06T23:47:17.111Z,100.00
2023-03-06T23:49:44.964Z,100.00
2023-03-06T23:52:14.054Z,100.00
2023-03-06T23:54:41.936Z,100.00
2023-03-06T23:57:09.929Z,100.00
2023-03-06T23:59:37.783Z,100.00
